sensor_id;sensor_type;location;lat;lon;timestamp;temperature;humidity
35373;DHT22;21476;51.652;7.852;2023-02-23T00:01:22;9.20;99.90
35373;DHT22;21476;51.652;7.852;2023-02-23T00:03:48;9.20;99.90
35373;DHT22;21476;51.652;7.852;2023-02-23T00:06:16;9.20;99.90
35373;DHT22;21476;51.652;7.852;2023-02-23T00:08:42;9.10;99.90
35373;DHT22;21476;51.652;7.852;2023-02-23T00:11:10;9.20;99.90
35373;DHT22;21476;51.652;7.852;2023-02-23T00:13:40;9.10;99.90
35373;DHT22;21476;51.652;7.852;2023-02-23T00:16:14;9.20;99.90
35373;DHT22;21476;51.652;7.852;2023-02-23T00:18:48;9.20;99.90
35373;DHT22;21476;51.652;7.852;2023-02-23T00:21:18;9.20;99.90
35373;DHT22;21476;51.652;7.852;2023-02-23T00:23:56;9.20;99.90
35373;DHT22;21476;51.652;7.852;2023-02-23T00:26:23;9.20;99.90
35373;DHT22;21476;51.652;7.852;2023-02-23T00:28:49;9.20;99.90
35373;DHT22;21476;51.652;7.852;2023-02-23T00:31:16;9.30;99.90
35373;DHT22;21476;51.652;7.852;2023-02-23T00:33:41;9.30;99.90
35373;DHT22;21476;51.652;7.852;2023-02-23T00:36:10;9.30;99.90
35373;DHT22;21476;51.652;7.852;2023-02-23T00:38:37;9.30;99.90
35373;DHT22;21476;51.652;7.852;2023-02-23T00:41:11;9.40;99.90
35373;DHT22;21476;51.652;7.852;2023-02-23T00:43:39;9.40;99.90
35373;DHT22;21476;51.652;7.852;2023-02-23T00:46:13;9.40;99.90
35373;DHT22;21476;51.652;7.852;2023-02-23T00:48:40;9.40;99.90
35373;DHT22;21476;51.652;7.852;2023-02-23T00:51:06;9.40;99.90
35373;DHT22;21476;51.652;7.852;2023-02-23T00:53:31;9.40;99.90
35373;DHT22;21476;51.652;7.852;2023-02-23T00:55:57;9.40;99.90
35373;DHT22;21476;51.652;7.852;2023-02-23T00:58:24;9.40;99.90
35373;DHT22;21476;51.652;7.852;2023-02-23T01:00:50;9.40;99.90
35373;DHT22;21476;51.652;7.852;2023-02-23T01:03:15;9.40;99.90
35373;DHT22;21476;51.652;7.852;2023-02-23T01:05:41;9.40;99.90
35373;DHT22;21476;51.652;7.852;2023-02-23T01:08:09;9.30;99.90
35373;DHT22;21476;51.652;7.852;2023-02-23T01:10:41;9.30;99.90
35373;DHT22;21476;51.652;7.852;2023-02-23T01:13:11;9.30;99.90
35373;DHT22;21476;51.652;7.852;2023-02-23T01:15:41;9.30;99.90
35373;DHT22;21476;51.652;7.852;2023-02-23T01:18:08;9.20;99.90
35373;DHT22;21476;51.652;7.852;2023-02-23T01:20:34;9.20;99.90
35373;DHT22;21476;51.652;7.852;2023-02-23T01:23:01;9.10;99.90
35373;DHT22;21476;51.652;7.852;2023-02-23T01:25:27;9.10;99.90
35373;DHT22;21476;51.652;7.852;2023-02-23T01:27:54;9.10;99.90
35373;DHT22;21476;51.652;7.852;2023-02-23T01:30:20;9.00;99.90
35373;DHT22;21476;51.652;7.852;2023-02-23T01:32:46;9.00;99.90
35373;DHT22;21476;51.652;7.852;2023-02-23T01:35:12;9.00;99.90
35373;DHT22;21476;51.652;7.852;2023-02-23T01:37:41;9.00;99.90
35373;DHT22;21476;51.652;7.852;2023-02-23T01:40:19;9.00;99.90
35373;DHT22;21476;51.652;7.852;2023-02-23T01:43:16;9.00;99.90
35373;DHT22;21476;51.652;7.852;2023-02-23T01:45:43;8.90;99.90
35373;DHT22;21476;51.652;7.852;2023-02-23T01:48:14;9.00;99.90
35373;DHT22;21476;51.652;7.852;2023-02-23T01:51:06;9.00;99.90
35373;DHT22;21476;51.652;7.852;2023-02-23T01:53:36;9.00;99.90
35373;DHT22;21476;51.652;7.852;2023-02-23T01:56:17;8.90;99.90
35373;DHT22;21476;51.652;7.852;2023-02-23T01:58:47;8.90;99.90
35373;DHT22;21476;51.652;7.852;2023-02-23T02:01:16;8.90;99.90
35373;DHT22;21476;51.652;7.852;2023-02-23T02:04:00;8.90;99.90
35373;DHT22;21476;51.652;7.852;2023-02-23T02:06:28;8.90;99.90
35373;DHT22;21476;51.652;7.852;2023-02-23T02:08:56;8.90;99.90
35373;DHT22;21476;51.652;7.852;2023-02-23T02:11:24;8.90;99.90
35373;DHT22;21476;51.652;7.852;2023-02-23T02:14:00;8.90;99.90
35373;DHT22;21476;51.652;7.852;2023-02-23T02:44:58;9.10;99.90
35373;DHT22;21476;51.652;7.852;2023-02-23T02:47:36;9.10;99.90
35373;DHT22;21476;51.652;7.852;2023-02-23T02:50:22;9.10;99.90
35373;DHT22;21476;51.652;7.852;2023-02-23T02:52:56;9.10;99.90
35373;DHT22;21476;51.652;7.852;2023-02-23T02:55:27;9.10;99.90
35373;DHT22;21476;51.652;7.852;2023-02-23T02:57:59;9.10;99.90
35373;DHT22;21476;51.652;7.852;2023-02-23T03:00:46;9.10;99.90
35373;DHT22;21476;51.652;7.852;2023-02-23T03:03:39;9.10;99.90
35373;DHT22;21476;51.652;7.852;2023-02-23T03:06:30;9.10;99.90
35373;DHT22;21476;51.652;7.852;2023-02-23T03:09:41;9.10;99.90
35373;DHT22;21476;51.652;7.852;2023-02-23T03:15:21;9.10;99.90
35373;DHT22;21476;51.652;7.852;2023-02-23T03:18:17;9.20;99.90
35373;DHT22;21476;51.652;7.852;2023-02-23T03:21:32;9.10;99.90
35373;DHT22;21476;51.652;7.852;2023-02-23T03:24:21;9.10;99.90
35373;DHT22;21476;51.652;7.852;2023-02-23T03:30:34;9.10;99.90
35373;DHT22;21476;51.652;7.852;2023-02-23T03:33:31;9.10;99.90
35373;DHT22;21476;51.652;7.852;2023-02-23T03:36:22;9.10;99.90
35373;DHT22;21476;51.652;7.852;2023-02-23T03:39:16;9.00;99.90
35373;DHT22;21476;51.652;7.852;2023-02-23T03:42:06;9.00;99.90
35373;DHT22;21476;51.652;7.852;2023-02-23T03:44:53;8.90;99.90
35373;DHT22;21476;51.652;7.852;2023-02-23T03:47:40;8.90;99.90
35373;DHT22;21476;51.652;7.852;2023-02-23T03:50:30;8.90;99.90
35373;DHT22;21476;51.652;7.852;2023-02-23T03:53:20;8.90;99.90
35373;DHT22;21476;51.652;7.852;2023-02-23T03:56:08;8.80;99.90
35373;DHT22;21476;51.652;7.852;2023-02-23T03:58:58;8.80;99.90
35373;DHT22;21476;51.652;7.852;2023-02-23T04:01:44;8.80;99.90
35373;DHT22;21476;51.652;7.852;2023-02-23T04:04:30;8.70;99.90
35373;DHT22;21476;51.652;7.852;2023-02-23T04:07:16;8.80;99.90
35373;DHT22;21476;51.652;7.852;2023-02-23T04:10:03;8.70;99.90
35373;DHT22;21476;51.652;7.852;2023-02-23T04:13:06;8.80;99.90
35373;DHT22;21476;51.652;7.852;2023-02-23T04:15:55;8.80;99.90
35373;DHT22;21476;51.652;7.852;2023-02-23T04:18:27;8.90;99.90
35373;DHT22;21476;51.652;7.852;2023-02-23T04:20:55;8.90;99.90
35373;DHT22;21476;51.652;7.852;2023-02-23T04:23:21;8.90;99.90
35373;DHT22;21476;51.652;7.852;2023-02-23T04:25:51;8.90;99.90
35373;DHT22;21476;51.652;7.852;2023-02-23T04:28:18;8.90;99.90
35373;DHT22;21476;51.652;7.852;2023-02-23T04:30:43;8.90;99.90
35373;DHT22;21476;51.652;7.852;2023-02-23T04:33:09;8.90;99.90
35373;DHT22;21476;51.652;7.852;2023-02-23T04:35:35;8.90;99.90
35373;DHT22;21476;51.652;7.852;2023-02-23T04:38:02;8.90;99.90
35373;DHT22;21476;51.652;7.852;2023-02-23T04:40:27;8.90;99.90
35373;DHT22;21476;51.652;7.852;2023-02-23T04:42:53;8.80;99.90
35373;DHT22;21476;51.652;7.852;2023-02-23T04:45:20;8.80;99.90
35373;DHT22;21476;51.652;7.852;2023-02-23T04:47:46;8.80;99.90
35373;DHT22;21476;51.652;7.852;2023-02-23T04:50:12;8.70;99.90
35373;DHT22;21476;51.652;7.852;2023-02-23T04:52:38;8.70;99.90
35373;DHT22;21476;51.652;7.852;2023-02-23T04:55:04;8.70;99.90
35373;DHT22;21476;51.652;7.852;2023-02-23T04:57:31;8.70;99.90
35373;DHT22;21476;51.652;7.852;2023-02-23T04:59:57;8.70;99.90
35373;DHT22;21476;51.652;7.852;2023-02-23T05:02:23;8.80;99.90
35373;DHT22;21476;51.652;7.852;2023-02-23T05:04:49;8.80;99.90
35373;DHT22;21476;51.652;7.852;2023-02-23T05:07:15;8.80;99.90
35373;DHT22;21476;51.652;7.852;2023-02-23T05:09:41;8.80;99.90
35373;DHT22;21476;51.652;7.852;2023-02-23T05:12:07;8.90;99.90
35373;DHT22;21476;51.652;7.852;2023-02-23T05:14:35;8.90;99.90
35373;DHT22;21476;51.652;7.852;2023-02-23T05:17:01;8.90;99.90
35373;DHT22;21476;51.652;7.852;2023-02-23T05:19:26;8.90;99.90
35373;DHT22;21476;51.652;7.852;2023-02-23T05:21:52;8.90;99.90
35373;DHT22;21476;51.652;7.852;2023-02-23T05:24:20;8.80;99.90
35373;DHT22;21476;51.652;7.852;2023-02-23T05:26:46;8.80;99.90
35373;DHT22;21476;51.652;7.852;2023-02-23T05:29:13;8.70;99.90
35373;DHT22;21476;51.652;7.852;2023-02-23T05:31:38;8.80;99.90
35373;DHT22;21476;51.652;7.852;2023-02-23T05:34:04;8.80;99.90
35373;DHT22;21476;51.652;7.852;2023-02-23T05:36:30;8.80;99.90
35373;DHT22;21476;51.652;7.852;2023-02-23T05:38:55;8.80;99.90
35373;DHT22;21476;51.652;7.852;2023-02-23T05:41:21;8.90;99.90
35373;DHT22;21476;51.652;7.852;2023-02-23T05:43:48;8.90;99.90
35373;DHT22;21476;51.652;7.852;2023-02-23T05:46:19;9.00;99.90
35373;DHT22;21476;51.652;7.852;2023-02-23T05:48:46;9.10;99.90
35373;DHT22;21476;51.652;7.852;2023-02-23T05:51:14;9.00;99.90
35373;DHT22;21476;51.652;7.852;2023-02-23T05:53:40;9.00;99.90
35373;DHT22;21476;51.652;7.852;2023-02-23T05:56:07;9.00;99.90
35373;DHT22;21476;51.652;7.852;2023-02-23T05:58:35;9.10;99.90
35373;DHT22;21476;51.652;7.852;2023-02-23T06:01:02;9.00;99.90
35373;DHT22;21476;51.652;7.852;2023-02-23T06:03:28;9.10;99.90
35373;DHT22;21476;51.652;7.852;2023-02-23T06:05:55;9.10;99.90
35373;DHT22;21476;51.652;7.852;2023-02-23T06:08:22;9.10;99.90
35373;DHT22;21476;51.652;7.852;2023-02-23T06:10:48;9.10;99.90
35373;DHT22;21476;51.652;7.852;2023-02-23T06:13:14;9.10;99.90
35373;DHT22;21476;51.652;7.852;2023-02-23T06:15:39;9.10;99.90
35373;DHT22;21476;51.652;7.852;2023-02-23T06:18:06;9.10;99.90
35373;DHT22;21476;51.652;7.852;2023-02-23T06:20:33;9.10;99.90
35373;DHT22;21476;51.652;7.852;2023-02-23T06:22:59;9.10;99.90
35373;DHT22;21476;51.652;7.852;2023-02-23T06:25:35;9.10;99.90
35373;DHT22;21476;51.652;7.852;2023-02-23T06:28:17;9.10;99.90
35373;DHT22;21476;51.652;7.852;2023-02-23T06:31:02;9.20;99.90
35373;DHT22;21476;51.652;7.852;2023-02-23T06:33:37;9.20;99.90
35373;DHT22;21476;51.652;7.852;2023-02-23T06:36:46;9.10;99.90
35373;DHT22;21476;51.652;7.852;2023-02-23T06:42:22;9.10;99.90
35373;DHT22;21476;51.652;7.852;2023-02-23T06:44:51;9.20;99.90
35373;DHT22;21476;51.652;7.852;2023-02-23T06:47:17;9.20;99.90
35373;DHT22;21476;51.652;7.852;2023-02-23T06:49:43;9.10;99.90
35373;DHT22;21476;51.652;7.852;2023-02-23T06:52:09;9.20;99.90
35373;DHT22;21476;51.652;7.852;2023-02-23T06:54:34;9.10;99.90
35373;DHT22;21476;51.652;7.852;2023-02-23T06:57:02;9.20;99.90
35373;DHT22;21476;51.652;7.852;2023-02-23T06:59:34;9.20;99.90
35373;DHT22;21476;51.652;7.852;2023-02-23T07:02:01;9.20;99.90
35373;DHT22;21476;51.652;7.852;2023-02-23T07:04:29;9.20;99.90
35373;DHT22;21476;51.652;7.852;2023-02-23T07:06:54;9.20;99.90
35373;DHT22;21476;51.652;7.852;2023-02-23T07:09:20;9.30;99.90
35373;DHT22;21476;51.652;7.852;2023-02-23T07:11:46;9.20;99.90
35373;DHT22;21476;51.652;7.852;2023-02-23T07:14:11;9.20;99.90
35373;DHT22;21476;51.652;7.852;2023-02-23T07:16:40;9.20;99.90
35373;DHT22;21476;51.652;7.852;2023-02-23T07:19:10;9.20;99.90
35373;DHT22;21476;51.652;7.852;2023-02-23T07:21:59;9.20;99.90
35373;DHT22;21476;51.652;7.852;2023-02-23T07:24:24;9.20;99.90
35373;DHT22;21476;51.652;7.852;2023-02-23T07:26:52;9.20;99.90
35373;DHT22;21476;51.652;7.852;2023-02-23T07:29:18;9.20;99.90
35373;DHT22;21476;51.652;7.852;2023-02-23T07:31:44;9.20;99.90
35373;DHT22;21476;51.652;7.852;2023-02-23T07:34:10;9.20;99.90
35373;DHT22;21476;51.652;7.852;2023-02-23T07:36:41;9.30;99.90
35373;DHT22;21476;51.652;7.852;2023-02-23T07:39:07;9.20;99.90
35373;DHT22;21476;51.652;7.852;2023-02-23T07:41:32;9.20;99.90
35373;DHT22;21476;51.652;7.852;2023-02-23T07:43:58;9.10;99.90
35373;DHT22;21476;51.652;7.852;2023-02-23T07:46:27;9.20;99.90
35373;DHT22;21476;51.652;7.852;2023-02-23T07:48:57;9.20;99.90
35373;DHT22;21476;51.652;7.852;2023-02-23T07:51:28;9.20;99.90
35373;DHT22;21476;51.652;7.852;2023-02-23T07:54:08;9.20;99.90
35373;DHT22;21476;51.652;7.852;2023-02-23T07:56:37;9.30;99.90
35373;DHT22;21476;51.652;7.852;2023-02-23T07:59:03;9.30;99.90
35373;DHT22;21476;51.652;7.852;2023-02-23T08:01:29;9.30;99.90
35373;DHT22;21476;51.652;7.852;2023-02-23T08:03:55;9.30;99.90
35373;DHT22;21476;51.652;7.852;2023-02-23T08:06:21;9.30;99.90
35373;DHT22;21476;51.652;7.852;2023-02-23T08:08:46;9.20;99.90
35373;DHT22;21476;51.652;7.852;2023-02-23T08:11:12;9.30;99.90
35373;DHT22;21476;51.652;7.852;2023-02-23T08:13:39;9.30;99.90
35373;DHT22;21476;51.652;7.852;2023-02-23T08:16:05;9.30;99.90
35373;DHT22;21476;51.652;7.852;2023-02-23T08:18:31;9.40;99.90
35373;DHT22;21476;51.652;7.852;2023-02-23T08:21:01;9.30;99.90
35373;DHT22;21476;51.652;7.852;2023-02-23T08:23:36;9.30;99.90
35373;DHT22;21476;51.652;7.852;2023-02-23T08:26:02;9.40;99.90
35373;DHT22;21476;51.652;7.852;2023-02-23T08:28:30;9.30;99.90
35373;DHT22;21476;51.652;7.852;2023-02-23T08:31:01;9.40;99.90
35373;DHT22;21476;51.652;7.852;2023-02-23T08:33:29;9.40;99.90
35373;DHT22;21476;51.652;7.852;2023-02-23T08:35:58;9.40;99.90
35373;DHT22;21476;51.652;7.852;2023-02-23T08:38:24;9.30;99.90
35373;DHT22;21476;51.652;7.852;2023-02-23T08:41:07;9.40;99.90
35373;DHT22;21476;51.652;7.852;2023-02-23T08:43:43;9.30;99.90
35373;DHT22;21476;51.652;7.852;2023-02-23T08:46:15;9.30;99.90
35373;DHT22;21476;51.652;7.852;2023-02-23T08:48:44;9.40;99.90
35373;DHT22;21476;51.652;7.852;2023-02-23T08:51:21;9.40;99.90
35373;DHT22;21476;51.652;7.852;2023-02-23T08:54:08;9.40;99.90
35373;DHT22;21476;51.652;7.852;2023-02-23T08:57:00;9.40;99.90
35373;DHT22;21476;51.652;7.852;2023-02-23T08:59:26;9.40;99.90
35373;DHT22;21476;51.652;7.852;2023-02-23T09:01:51;9.40;99.90
35373;DHT22;21476;51.652;7.852;2023-02-23T09:04:17;9.40;99.90
35373;DHT22;21476;51.652;7.852;2023-02-23T09:06:49;9.40;99.90
35373;DHT22;21476;51.652;7.852;2023-02-23T09:09:17;9.40;99.90
35373;DHT22;21476;51.652;7.852;2023-02-23T09:11:43;9.40;99.90
35373;DHT22;21476;51.652;7.852;2023-02-23T09:14:09;9.50;99.90
35373;DHT22;21476;51.652;7.852;2023-02-23T09:16:35;9.40;99.90
35373;DHT22;21476;51.652;7.852;2023-02-23T09:19:03;9.40;99.90
35373;DHT22;21476;51.652;7.852;2023-02-23T09:27:55;9.50;99.90
35373;DHT22;21476;51.652;7.852;2023-02-23T09:30:25;9.50;99.90
35373;DHT22;21476;51.652;7.852;2023-02-23T09:36:10;9.40;99.90
35373;DHT22;21476;51.652;7.852;2023-02-23T09:39:16;9.40;99.90
35373;DHT22;21476;51.652;7.852;2023-02-23T09:42:10;9.40;99.90
35373;DHT22;21476;51.652;7.852;2023-02-23T09:48:08;9.40;99.90
35373;DHT22;21476;51.652;7.852;2023-02-23T09:50:46;9.40;99.90
35373;DHT22;21476;51.652;7.852;2023-02-23T09:53:47;9.40;99.90
35373;DHT22;21476;51.652;7.852;2023-02-23T09:56:48;9.40;99.90
35373;DHT22;21476;51.652;7.852;2023-02-23T09:59:33;9.40;99.90
35373;DHT22;21476;51.652;7.852;2023-02-23T10:03:20;9.40;99.90
35373;DHT22;21476;51.652;7.852;2023-02-23T10:05:42;9.50;99.90
35373;DHT22;21476;51.652;7.852;2023-02-23T10:12:12;9.70;99.90
35373;DHT22;21476;51.652;7.852;2023-02-23T10:20:52;9.90;99.90
35373;DHT22;21476;51.652;7.852;2023-02-23T10:23:50;9.90;99.90
35373;DHT22;21476;51.652;7.852;2023-02-23T10:26:46;10.00;99.90
35373;DHT22;21476;51.652;7.852;2023-02-23T10:35:07;10.20;99.90
35373;DHT22;21476;51.652;7.852;2023-02-23T10:37:37;10.10;99.90
35373;DHT22;21476;51.652;7.852;2023-02-23T10:40:32;10.20;99.90
35373;DHT22;21476;51.652;7.852;2023-02-23T10:43:08;10.20;99.90
35373;DHT22;21476;51.652;7.852;2023-02-23T10:48:48;10.20;99.90
35373;DHT22;21476;51.652;7.852;2023-02-23T10:51:26;10.30;99.90
35373;DHT22;21476;51.652;7.852;2023-02-23T10:57:04;10.30;99.90
35373;DHT22;21476;51.652;7.852;2023-02-23T11:00:21;10.30;99.90
35373;DHT22;21476;51.652;7.852;2023-02-23T11:02:57;10.40;99.90
35373;DHT22;21476;51.652;7.852;2023-02-23T11:05:43;10.30;99.90
35373;DHT22;21476;51.652;7.852;2023-02-23T11:08:40;10.30;99.90
35373;DHT22;21476;51.652;7.852;2023-02-23T11:14:24;10.50;99.90
35373;DHT22;21476;51.652;7.852;2023-02-23T11:17:03;10.60;99.90
35373;DHT22;21476;51.652;7.852;2023-02-23T11:19:36;10.80;99.90
35373;DHT22;21476;51.652;7.852;2023-02-23T11:22:03;10.90;99.90
35373;DHT22;21476;51.652;7.852;2023-02-23T11:24:35;11.00;99.90
35373;DHT22;21476;51.652;7.852;2023-02-23T11:27:17;11.10;99.90
35373;DHT22;21476;51.652;7.852;2023-02-23T11:29:46;11.00;99.90
35373;DHT22;21476;51.652;7.852;2023-02-23T11:32:18;11.10;99.90
35373;DHT22;21476;51.652;7.852;2023-02-23T11:34:45;10.90;99.90
35373;DHT22;21476;51.652;7.852;2023-02-23T11:39:56;10.80;99.90
35373;DHT22;21476;51.652;7.852;2023-02-23T11:42:24;10.90;99.90
35373;DHT22;21476;51.652;7.852;2023-02-23T11:45:06;10.80;99.90
35373;DHT22;21476;51.652;7.852;2023-02-23T11:47:40;10.80;99.90
35373;DHT22;21476;51.652;7.852;2023-02-23T11:50:27;10.90;99.90
35373;DHT22;21476;51.652;7.852;2023-02-23T11:53:04;10.80;99.90
35373;DHT22;21476;51.652;7.852;2023-02-23T11:55:33;10.70;99.90
35373;DHT22;21476;51.652;7.852;2023-02-23T11:58:22;10.70;99.90
35373;DHT22;21476;51.652;7.852;2023-02-23T12:00:59;10.60;99.90
35373;DHT22;21476;51.652;7.852;2023-02-23T12:06:40;10.50;99.90
35373;DHT22;21476;51.652;7.852;2023-02-23T12:09:30;10.30;99.90
35373;DHT22;21476;51.652;7.852;2023-02-23T12:12:02;10.20;99.90
35373;DHT22;21476;51.652;7.852;2023-02-23T12:17:11;10.10;99.90
35373;DHT22;21476;51.652;7.852;2023-02-23T12:19:58;10.10;99.90
35373;DHT22;21476;51.652;7.852;2023-02-23T12:33:52;9.70;99.90
35373;DHT22;21476;51.652;7.852;2023-02-23T12:39:15;9.60;99.90
35373;DHT22;21476;51.652;7.852;2023-02-23T12:44:49;9.50;99.90
35373;DHT22;21476;51.652;7.852;2023-02-23T12:52:58;9.40;99.90
35373;DHT22;21476;51.652;7.852;2023-02-23T13:01:58;9.40;99.90
35373;DHT22;21476;51.652;7.852;2023-02-23T13:10:43;9.50;99.90
35373;DHT22;21476;51.652;7.852;2023-02-23T13:19:20;9.30;99.90
35373;DHT22;21476;51.652;7.852;2023-02-23T13:24:49;9.20;99.90
35373;DHT22;21476;51.652;7.852;2023-02-23T13:30:17;9.30;99.90
35373;DHT22;21476;51.652;7.852;2023-02-23T13:32:54;9.30;99.90
35373;DHT22;21476;51.652;7.852;2023-02-23T13:35:24;9.30;99.90
35373;DHT22;21476;51.652;7.852;2023-02-23T13:38:06;9.30;99.90
35373;DHT22;21476;51.652;7.852;2023-02-23T13:41:13;9.30;99.90
35373;DHT22;21476;51.652;7.852;2023-02-23T13:43:55;9.10;99.90
35373;DHT22;21476;51.652;7.852;2023-02-23T13:46:47;9.10;99.90
35373;DHT22;21476;51.652;7.852;2023-02-23T13:52:48;9.10;99.90
35373;DHT22;21476;51.652;7.852;2023-02-23T13:55:59;9.10;99.90
35373;DHT22;21476;51.652;7.852;2023-02-23T13:58:50;9.00;99.90
35373;DHT22;21476;51.652;7.852;2023-02-23T14:01:40;9.00;99.90
35373;DHT22;21476;51.652;7.852;2023-02-23T14:04:28;9.00;99.90
35373;DHT22;21476;51.652;7.852;2023-02-23T14:07:17;9.00;99.90
35373;DHT22;21476;51.652;7.852;2023-02-23T14:09:54;9.00;99.90
35373;DHT22;21476;51.652;7.852;2023-02-23T14:12:32;9.00;99.90
35373;DHT22;21476;51.652;7.852;2023-02-23T14:18:00;8.90;99.90
35373;DHT22;21476;51.652;7.852;2023-02-23T14:26:08;8.90;99.90
35373;DHT22;21476;51.652;7.852;2023-02-23T14:28:38;8.80;99.90
35373;DHT22;21476;51.652;7.852;2023-02-23T14:41:24;8.70;99.90
35373;DHT22;21476;51.652;7.852;2023-02-23T14:47:03;8.80;99.90
35373;DHT22;21476;51.652;7.852;2023-02-23T14:49:35;8.80;99.90
35373;DHT22;21476;51.652;7.852;2023-02-23T14:52:11;8.80;99.90
35373;DHT22;21476;51.652;7.852;2023-02-23T14:54:42;8.80;99.90
35373;DHT22;21476;51.652;7.852;2023-02-23T14:57:20;8.70;99.90
35373;DHT22;21476;51.652;7.852;2023-02-23T14:59:56;8.60;99.90
35373;DHT22;21476;51.652;7.852;2023-02-23T15:02:28;8.60;99.90
35373;DHT22;21476;51.652;7.852;2023-02-23T15:04:57;8.60;99.90
35373;DHT22;21476;51.652;7.852;2023-02-23T15:07:37;8.50;99.90
35373;DHT22;21476;51.652;7.852;2023-02-23T15:10:11;8.40;99.90
35373;DHT22;21476;51.652;7.852;2023-02-23T15:12:43;8.40;99.90
35373;DHT22;21476;51.652;7.852;2023-02-23T15:15:27;8.50;99.90
35373;DHT22;21476;51.652;7.852;2023-02-23T15:17:57;8.50;99.90
35373;DHT22;21476;51.652;7.852;2023-02-23T15:20:29;8.40;99.90
35373;DHT22;21476;51.652;7.852;2023-02-23T15:22:57;8.60;99.90
35373;DHT22;21476;51.652;7.852;2023-02-23T15:25:38;8.50;99.90
35373;DHT22;21476;51.652;7.852;2023-02-23T15:28:27;8.50;99.90
35373;DHT22;21476;51.652;7.852;2023-02-23T15:30:58;8.50;99.90
35373;DHT22;21476;51.652;7.852;2023-02-23T15:33:34;8.40;99.90
35373;DHT22;21476;51.652;7.852;2023-02-23T15:36:15;8.40;99.90
35373;DHT22;21476;51.652;7.852;2023-02-23T15:39:01;8.30;99.90
35373;DHT22;21476;51.652;7.852;2023-02-23T15:41:33;8.40;99.90
35373;DHT22;21476;51.652;7.852;2023-02-23T15:44:18;8.30;99.90
35373;DHT22;21476;51.652;7.852;2023-02-23T15:46:50;8.30;99.90
35373;DHT22;21476;51.652;7.852;2023-02-23T15:49:16;8.30;99.90
35373;DHT22;21476;51.652;7.852;2023-02-23T15:51:49;8.40;99.90
35373;DHT22;21476;51.652;7.852;2023-02-23T15:57:46;8.40;99.90
35373;DHT22;21476;51.652;7.852;2023-02-23T16:00:37;8.30;99.90
35373;DHT22;21476;51.652;7.852;2023-02-23T16:03:05;8.30;99.90
35373;DHT22;21476;51.652;7.852;2023-02-23T16:05:33;8.20;99.90
35373;DHT22;21476;51.652;7.852;2023-02-23T16:08:15;8.20;99.90
35373;DHT22;21476;51.652;7.852;2023-02-23T16:10:47;8.20;99.90
35373;DHT22;21476;51.652;7.852;2023-02-23T16:13:16;8.30;99.90
35373;DHT22;21476;51.652;7.852;2023-02-23T16:15:43;8.30;99.90
35373;DHT22;21476;51.652;7.852;2023-02-23T16:18:13;8.30;99.90
35373;DHT22;21476;51.652;7.852;2023-02-23T16:20:46;8.20;99.90
35373;DHT22;21476;51.652;7.852;2023-02-23T16:23:31;8.20;99.90
35373;DHT22;21476;51.652;7.852;2023-02-23T16:25:59;8.20;99.90
35373;DHT22;21476;51.652;7.852;2023-02-23T16:28:30;8.20;99.90
35373;DHT22;21476;51.652;7.852;2023-02-23T16:31:03;8.30;99.90
35373;DHT22;21476;51.652;7.852;2023-02-23T16:33:44;8.30;99.90
35373;DHT22;21476;51.652;7.852;2023-02-23T16:36:20;8.30;99.90
35373;DHT22;21476;51.652;7.852;2023-02-23T16:38:56;8.30;99.90
35373;DHT22;21476;51.652;7.852;2023-02-23T16:41:27;8.30;99.90
35373;DHT22;21476;51.652;7.852;2023-02-23T16:43:57;8.30;99.90
35373;DHT22;21476;51.652;7.852;2023-02-23T16:46:27;8.20;99.90
35373;DHT22;21476;51.652;7.852;2023-02-23T16:48:54;8.20;99.90
35373;DHT22;21476;51.652;7.852;2023-02-23T16:51:20;8.20;99.90
35373;DHT22;21476;51.652;7.852;2023-02-23T16:53:48;8.20;99.90
35373;DHT22;21476;51.652;7.852;2023-02-23T16:56:20;8.10;99.90
35373;DHT22;21476;51.652;7.852;2023-02-23T16:58:56;8.20;99.90
35373;DHT22;21476;51.652;7.852;2023-02-23T17:01:22;8.20;99.90
35373;DHT22;21476;51.652;7.852;2023-02-23T17:03:48;8.10;99.90
35373;DHT22;21476;51.652;7.852;2023-02-23T17:06:14;8.10;99.90
35373;DHT22;21476;51.652;7.852;2023-02-23T17:08:39;8.20;99.90
35373;DHT22;21476;51.652;7.852;2023-02-23T17:11:06;8.20;99.90
35373;DHT22;21476;51.652;7.852;2023-02-23T17:13:32;8.10;99.90
35373;DHT22;21476;51.652;7.852;2023-02-23T17:16:00;8.20;99.90
35373;DHT22;21476;51.652;7.852;2023-02-23T17:18:30;8.20;99.90
35373;DHT22;21476;51.652;7.852;2023-02-23T17:20:59;8.20;99.90
35373;DHT22;21476;51.652;7.852;2023-02-23T17:23:27;8.30;99.90
35373;DHT22;21476;51.652;7.852;2023-02-23T17:26:04;8.20;99.90
35373;DHT22;21476;51.652;7.852;2023-02-23T17:28:30;8.10;99.90
35373;DHT22;21476;51.652;7.852;2023-02-23T17:30:55;8.10;99.90
35373;DHT22;21476;51.652;7.852;2023-02-23T17:33:21;8.10;99.90
35373;DHT22;21476;51.652;7.852;2023-02-23T17:35:47;8.00;99.90
35373;DHT22;21476;51.652;7.852;2023-02-23T17:38:13;8.00;99.90
35373;DHT22;21476;51.652;7.852;2023-02-23T17:40:39;8.10;99.90
35373;DHT22;21476;51.652;7.852;2023-02-23T17:43:05;8.10;99.90
35373;DHT22;21476;51.652;7.852;2023-02-23T17:45:34;8.00;99.90
35373;DHT22;21476;51.652;7.852;2023-02-23T17:48:00;8.10;99.90
35373;DHT22;21476;51.652;7.852;2023-02-23T17:50:27;8.00;99.90
35373;DHT22;21476;51.652;7.852;2023-02-23T17:52:53;8.10;99.90
35373;DHT22;21476;51.652;7.852;2023-02-23T17:55:21;8.00;99.90
35373;DHT22;21476;51.652;7.852;2023-02-23T17:57:47;8.00;99.90
35373;DHT22;21476;51.652;7.852;2023-02-23T18:00:14;7.90;99.90
35373;DHT22;21476;51.652;7.852;2023-02-23T18:02:42;8.00;99.90
35373;DHT22;21476;51.652;7.852;2023-02-23T18:05:10;8.00;99.90
35373;DHT22;21476;51.652;7.852;2023-02-23T18:07:36;8.00;99.90
35373;DHT22;21476;51.652;7.852;2023-02-23T18:10:03;7.90;99.90
35373;DHT22;21476;51.652;7.852;2023-02-23T18:12:29;7.90;99.90
35373;DHT22;21476;51.652;7.852;2023-02-23T18:14:56;7.90;99.90
35373;DHT22;21476;51.652;7.852;2023-02-23T18:17:21;8.00;99.90
35373;DHT22;21476;51.652;7.852;2023-02-23T18:19:47;8.00;99.90
35373;DHT22;21476;51.652;7.852;2023-02-23T18:22:12;8.00;99.90
35373;DHT22;21476;51.652;7.852;2023-02-23T18:24:38;7.90;99.90
35373;DHT22;21476;51.652;7.852;2023-02-23T18:27:05;7.90;99.90
35373;DHT22;21476;51.652;7.852;2023-02-23T18:29:33;7.90;99.90
35373;DHT22;21476;51.652;7.852;2023-02-23T18:32:00;7.90;99.90
35373;DHT22;21476;51.652;7.852;2023-02-23T18:34:27;7.90;99.90
35373;DHT22;21476;51.652;7.852;2023-02-23T18:36:54;8.00;99.90
35373;DHT22;21476;51.652;7.852;2023-02-23T18:39:20;7.90;99.90
35373;DHT22;21476;51.652;7.852;2023-02-23T18:41:46;8.00;99.90
35373;DHT22;21476;51.652;7.852;2023-02-23T18:44:14;8.00;99.90
35373;DHT22;21476;51.652;7.852;2023-02-23T18:46:41;8.10;99.90
35373;DHT22;21476;51.652;7.852;2023-02-23T18:49:08;8.00;99.90
35373;DHT22;21476;51.652;7.852;2023-02-23T18:51:35;8.00;99.90
35373;DHT22;21476;51.652;7.852;2023-02-23T18:54:01;8.00;99.90
35373;DHT22;21476;51.652;7.852;2023-02-23T18:56:29;8.00;99.90
35373;DHT22;21476;51.652;7.852;2023-02-23T18:58:58;7.90;99.90
35373;DHT22;21476;51.652;7.852;2023-02-23T19:01:28;7.90;99.90
35373;DHT22;21476;51.652;7.852;2023-02-23T19:03:56;7.80;99.90